createdAt,value
2022-09-01T00:02:59.921Z,11.60
2022-09-01T00:08:01.926Z,11.51
2022-09-01T00:13:06.942Z,11.42
2022-09-01T00:18:09.085Z,11.38
2022-09-01T00:23:10.677Z,11.23
2022-09-01T00:28:12.297Z,11.19
2022-09-01T00:33:14.056Z,11.08
2022-09-01T00:38:16.305Z,11.04
2022-09-01T00:43:22.629Z,10.99
2022-09-01T00:48:25.056Z,10.88
2022-09-01T00:53:26.860Z,10.94
2022-09-01T00:58:29.915Z,10.90
2022-09-01T01:03:31.555Z,10.89
2022-09-01T01:08:36.844Z,10.74
2022-09-01T01:14:12.291Z,10.74
2022-09-01T01:19:44.076Z,10.67
2022-09-01T01:24:47.964Z,10.61
2022-09-01T01:29:51.891Z,10.57
2022-09-01T01:34:53.854Z,10.47
2022-09-01T01:39:55.443Z,10.43
2022-09-01T01:44:57.367Z,10.42
2022-09-01T01:49:58.940Z,10.38
2022-09-01T01:55:05.012Z,10.31
2022-09-01T02:00:08.292Z,10.24
2022-09-01T02:05:12.933Z,10.16
2022-09-01T02:10:15.012Z,10.19
2022-09-01T02:15:16.739Z,10.26
2022-09-01T02:20:18.534Z,10.26
2022-09-01T02:25:20.717Z,10.18
2022-09-01T02:30:26.491Z,10.15
2022-09-01T02:35:37.966Z,10.11
2022-09-01T02:40:46.880Z,10.14
2022-09-01T02:45:55.510Z,10.10
2022-09-01T02:51:01.929Z,10.05
2022-09-01T02:56:09.439Z,10.01
2022-09-01T03:01:24.781Z,9.94
2022-09-01T03:06:34.195Z,9.80
2022-09-01T03:11:42.757Z,9.93
2022-09-01T03:16:45.018Z,10.01
2022-09-01T03:21:47.374Z,10.05
2022-09-01T03:26:50.855Z,10.13
2022-09-01T03:31:52.561Z,10.06
2022-09-01T03:36:54.343Z,10.06
2022-09-01T03:41:56.388Z,10.05
2022-09-01T03:46:58.460Z,10.12
2022-09-01T03:52:00.266Z,10.16
2022-09-01T03:57:02.033Z,10.21
2022-09-01T04:02:03.931Z,10.27
2022-09-01T04:07:05.606Z,10.32
2022-09-01T04:12:09.002Z,10.32
2022-09-01T04:17:30.663Z,10.35
2022-09-01T04:22:35.258Z,10.39
2022-09-01T04:27:39.104Z,10.34
2022-09-01T04:32:41.634Z,10.34
2022-09-01T04:37:43.607Z,10.33
2022-09-01T04:42:45.198Z,10.34
2022-09-01T04:47:47.814Z,10.37
2022-09-01T04:52:51.157Z,10.38
2022-09-01T04:57:53.177Z,10.41
2022-09-01T05:03:03.124Z,10.53
2022-09-01T05:08:06.479Z,10.63
2022-09-01T05:13:10.362Z,10.69
2022-09-01T05:18:23.353Z,10.87
2022-09-01T05:23:26.465Z,10.98
2022-09-01T05:28:29.127Z,11.01
2022-09-01T05:33:30.713Z,11.13
2022-09-01T05:38:33.980Z,11.19
2022-09-01T05:43:36.914Z,11.34
2022-09-01T05:48:40.119Z,11.52
2022-09-01T05:53:43.869Z,11.74
2022-09-01T06:04:10.532Z,12.27
2022-09-01T06:09:17.978Z,12.59
2022-09-01T06:14:20.515Z,12.93
2022-09-01T06:19:22.148Z,13.47
2022-09-01T06:24:23.884Z,14.16
2022-09-01T06:29:25.752Z,14.53
2022-09-01T06:34:28.447Z,14.72
2022-09-01T06:39:31.739Z,14.71
2022-09-01T06:44:33.804Z,14.70
2022-09-01T06:49:36.728Z,14.72
2022-09-01T06:54:39.638Z,14.89
2022-09-01T06:59:41.287Z,15.30
2022-09-01T07:04:46.011Z,15.92
2022-09-01T07:10:05.887Z,16.34
2022-09-01T07:21:02.717Z,17.09
2022-09-01T07:26:06.912Z,17.33
2022-09-01T07:36:33.163Z,17.73
2022-09-01T07:47:20.086Z,18.11
2022-09-01T07:52:22.646Z,18.33
2022-09-01T07:57:24.470Z,18.74
2022-09-01T08:02:27.979Z,18.82
2022-09-01T08:07:29.814Z,18.89
2022-09-01T08:12:31.723Z,19.06
2022-09-01T08:17:50.286Z,18.84
2022-09-01T08:22:53.165Z,18.70
2022-09-01T08:28:02.160Z,18.56
2022-09-01T08:33:11.214Z,18.47
2022-09-01T08:38:12.885Z,18.38
2022-09-01T08:43:24.952Z,18.34
2022-09-01T08:54:27.683Z,18.16
2022-09-01T08:59:31.802Z,18.13
2022-09-01T09:04:35.995Z,18.03
2022-09-01T09:09:54.024Z,18.00
2022-09-01T09:15:08.122Z,18.13
2022-09-01T09:20:10.524Z,18.46
2022-09-01T09:25:17.523Z,18.79
2022-09-01T09:30:27.380Z,18.95
2022-09-01T09:35:33.379Z,18.88
2022-09-01T09:40:53.318Z,18.99
2022-09-01T09:46:25.322Z,19.11
2022-09-01T09:51:28.918Z,19.10
2022-09-01T09:56:31.145Z,19.20
2022-09-01T10:01:34.718Z,19.93
2022-09-01T10:06:41.092Z,23.82
2022-09-01T10:11:48.249Z,23.29
2022-09-01T10:16:56.126Z,22.35
2022-09-01T10:21:57.740Z,21.39
2022-09-01T10:27:14.272Z,24.25
2022-09-01T10:32:34.969Z,22.75
2022-09-01T10:37:41.334Z,21.40
2022-09-01T10:42:46.519Z,20.72
2022-09-01T10:47:48.548Z,22.92
2022-09-01T10:52:51.355Z,27.81
2022-09-01T11:03:51.869Z,30.32
2022-09-01T11:09:02.987Z,31.27
2022-09-01T11:14:21.976Z,31.54
2022-09-01T11:19:23.653Z,31.52
2022-09-01T11:25:12.511Z,31.85
2022-09-01T11:30:21.376Z,30.08
2022-09-01T11:35:26.628Z,29.89
2022-09-01T11:40:32.660Z,30.53
2022-09-01T11:45:43.262Z,30.82
2022-09-01T11:50:44.902Z,30.74
2022-09-01T11:55:50.033Z,29.88
2022-09-01T12:00:51.599Z,29.95
2022-09-01T12:06:01.206Z,29.68
2022-09-01T12:11:08.921Z,29.77
2022-09-01T12:16:18.478Z,28.87
2022-09-01T12:21:43.877Z,29.04
2022-09-01T12:26:54.197Z,28.72
2022-09-01T12:31:56.167Z,28.31
2022-09-01T12:37:29.546Z,29.14
2022-09-01T12:42:40.766Z,28.79
2022-09-01T12:47:50.299Z,28.75
2022-09-01T12:53:00.186Z,28.05
2022-09-01T12:58:05.618Z,25.96
2022-09-01T13:03:17.896Z,25.60
2022-09-01T13:08:26.904Z,26.28
2022-09-01T13:13:29.303Z,26.35
2022-09-01T13:18:31.004Z,26.82
2022-09-01T13:23:32.947Z,26.25
2022-09-01T13:28:36.434Z,26.54
2022-09-01T13:39:02.031Z,25.05
2022-09-01T13:44:03.672Z,25.01
2022-09-01T13:49:42.073Z,25.32
2022-09-01T13:54:26.818Z,25.44
2022-09-01T13:59:29.975Z,24.87
2022-09-01T14:04:31.743Z,24.37
2022-09-01T14:09:34.354Z,24.89
2022-09-01T14:19:57.542Z,25.00
2022-09-01T14:24:59.290Z,24.21
2022-09-01T14:30:00.996Z,24.16
2022-09-01T14:35:03.454Z,24.26
2022-09-01T14:40:06.486Z,24.31
2022-09-01T14:45:12.054Z,24.17
2022-09-01T14:50:15.979Z,23.92
2022-09-01T14:55:22.716Z,23.63
2022-09-01T15:00:27.756Z,23.20
2022-09-01T15:05:29.483Z,22.88
2022-09-01T15:10:41.058Z,22.76
2022-09-01T15:15:42.686Z,22.83
2022-09-01T15:20:47.321Z,22.56
2022-09-01T15:25:53.299Z,22.60
2022-09-01T15:30:56.970Z,22.37
2022-09-01T15:35:58.536Z,22.40
2022-09-01T15:41:01.643Z,22.14
2022-09-01T15:46:04.690Z,22.11
2022-09-01T15:51:24.404Z,21.95
2022-09-01T15:56:26.277Z,21.69
2022-09-01T16:01:29.597Z,21.48
2022-09-01T16:06:31.230Z,21.31
2022-09-01T16:11:33.008Z,21.08
2022-09-01T16:16:41.263Z,20.87
2022-09-01T16:22:05.884Z,20.69
2022-09-01T16:27:10.458Z,20.54
2022-09-01T16:32:13.225Z,20.41
2022-09-01T16:37:36.035Z,20.36
2022-09-01T16:42:47.014Z,20.28
2022-09-01T16:47:57.813Z,20.12
2022-09-01T16:53:17.674Z,20.01
2022-09-01T16:58:51.940Z,19.87
2022-09-01T17:04:20.158Z,19.67
2022-09-01T17:09:33.259Z,19.64
2022-09-01T17:14:40.932Z,19.55
2022-09-01T17:19:42.463Z,19.47
2022-09-01T17:24:48.909Z,19.29
2022-09-01T17:29:53.256Z,19.16
2022-09-01T17:35:15.109Z,19.09
2022-09-01T17:40:25.718Z,18.89
2022-09-01T17:45:45.614Z,18.84
2022-09-01T17:51:24.608Z,18.65
2022-09-01T17:56:45.172Z,18.43
2022-09-01T18:02:20.921Z,18.17
2022-09-01T18:07:40.808Z,17.85
2022-09-01T18:12:44.177Z,17.69
2022-09-01T18:17:50.711Z,17.38
2022-09-01T18:23:01.948Z,17.22
2022-09-01T18:28:03.744Z,16.88
2022-09-01T18:33:18.856Z,16.73
2022-09-01T18:38:42.228Z,16.59
2022-09-01T18:43:51.152Z,16.40
2022-09-01T18:48:59.853Z,16.33
2022-09-01T18:54:27.192Z,16.16
2022-09-01T18:59:36.893Z,16.12
2022-09-01T19:04:45.902Z,16.04
2022-09-01T19:09:58.434Z,16.08
2022-09-01T19:15:15.213Z,16.03
2022-09-01T19:20:23.404Z,15.90
2022-09-01T19:25:38.097Z,15.85
2022-09-01T19:30:50.134Z,15.72
2022-09-01T19:35:57.411Z,15.58
2022-09-01T19:41:10.709Z,15.40
2022-09-01T19:46:28.574Z,15.25
2022-09-01T19:51:38.152Z,15.10
2022-09-01T19:56:56.685Z,15.01
2022-09-01T20:02:09.280Z,14.80
2022-09-01T20:07:31.404Z,14.70
2022-09-01T20:12:47.935Z,14.63
2022-09-01T20:17:52.350Z,14.50
2022-09-01T20:23:08.134Z,14.36
2022-09-01T20:28:44.354Z,14.27
2022-09-01T20:34:01.726Z,14.14
2022-09-01T20:39:40.781Z,14.06
2022-09-01T20:44:57.488Z,13.94
2022-09-01T20:50:00.667Z,13.88
2022-09-01T20:55:23.468Z,13.75
2022-09-01T21:00:28.018Z,13.66
2022-09-01T21:05:41.590Z,13.57
2022-09-01T21:10:59.165Z,13.47
2022-09-01T21:16:18.690Z,13.34
2022-09-01T21:21:45.269Z,13.33
2022-09-01T21:26:48.984Z,13.23
2022-09-01T21:31:50.942Z,13.16
2022-09-01T21:36:55.390Z,13.01
2022-09-01T21:41:57.364Z,12.81
2022-09-01T21:46:59.348Z,12.71
2022-09-01T21:52:00.873Z,12.57
2022-09-01T21:57:02.822Z,12.58
2022-09-01T22:02:07.086Z,12.47
2022-09-01T22:07:15.207Z,12.39
2022-09-01T22:12:16.947Z,12.25
2022-09-01T22:17:18.744Z,12.14
2022-09-01T22:22:20.271Z,12.06
2022-09-01T22:27:21.770Z,11.99
2022-09-01T22:32:23.981Z,11.95
2022-09-01T22:37:25.574Z,11.92
2022-09-01T22:42:27.277Z,11.91
2022-09-01T22:47:29.015Z,11.91
2022-09-01T22:52:30.634Z,11.88
2022-09-01T22:57:32.704Z,11.87
2022-09-01T23:02:34.857Z,11.81
2022-09-01T23:07:39.755Z,11.81
2022-09-01T23:12:41.799Z,11.71
2022-09-01T23:17:43.613Z,11.70
2022-09-01T23:22:46.010Z,11.72
2022-09-01T23:27:47.561Z,11.72
2022-09-01T23:32:49.102Z,11.66
2022-09-01T23:37:50.629Z,11.71
2022-09-01T23:42:52.192Z,11.63
2022-09-01T23:47:53.724Z,11.63
2022-09-01T23:52:56.059Z,11.61
2022-09-01T23:57:57.576Z,11.54
